Time;durP1;ratioP1;P1;durP2;ratioP2;P2;SDS_P1;SDS_P2;PMS_P1;PMS_P2;Temp;Humidity;BMP_temperature;BMP_pressure;BME280_temperature;BME280_humidity;BME280_pressure;Samples;Min_cycle;Max_cycle;Signal;HPM_P1;HPM_P2
2022/11/26 11:38:30;;;;;;;49.77;20.37;;;6.30;55.80;;;;;;6191513;23;20949;-55
2022/11/26 11:40:57;;;;;;;51.37;23.10;;;6.40;63.30;;;;;;6184380;23;20686;-51
2022/11/26 11:43:24;;;;;;;55.97;21.73;;;6.50;68.20;;;;;;6183386;23;20418;-52
2022/11/26 11:46:12;;;;;;;49.70;21.43;;;6.60;69.70;;;;;;6184499;23;20379;-56
2022/11/26 11:48:45;;;;;;;57.60;22.43;;;6.50;58.90;;;;;;6184399;23;20394;-51
2022/11/26 11:51:26;;;;;;;54.03;21.67;;;6.50;46.30;;;;;;6184309;23;20876;-51
2022/11/26 11:54:02;;;;;;;52.43;21.73;;;6.50;38.30;;;;;;6184907;23;20366;-52
2022/11/26 11:56:45;;;;;;;51.93;21.60;;;6.60;36.70;;;;;;6184357;23;20387;-50
2022/11/26 11:59:46;;;;;;;57.63;23.77;;;6.50;25.90;;;;;;6184026;23;20362;-52
2022/11/26 12:02:12;;;;;;;51.60;21.30;;;6.50;24.10;;;;;;6184048;23;20406;-51
2022/11/26 12:04:46;;;;;;;59.93;24.20;;;6.50;20.70;;;;;;6183406;23;20377;-52
2022/11/26 12:07:20;;;;;;;59.80;23.13;;;6.50;16.30;;;;;;6183893;23;20140;-51
2022/11/26 12:10:01;;;;;;;60.07;23.53;;;6.50;11.50;;;;;;6183990;23;20830;-52
2022/11/26 12:12:36;;;;;;;52.13;22.07;;;6.50;11.50;;;;;;6183852;23;20366;-43
2022/11/26 12:15:23;;;;;;;57.23;22.90;;;6.50;12.80;;;;;;6183976;23;20370;-43
2022/11/26 12:18:02;;;;;;;68.57;24.70;;;6.60;18.50;;;;;;6183860;23;20406;-43
2022/11/26 12:20:37;;;;;;;60.20;25.10;;;6.70;30.90;;;;;;6183786;23;20358;-43
2022/11/26 12:23:24;;;;;;;56.83;24.87;;;6.80;40.30;;;;;;6156670;23;20479;-44
2022/11/26 12:26:12;;;;;;;59.60;24.13;;;6.80;41.10;;;;;;6184247;23;20722;-44
2022/11/26 12:28:58;;;;;;;63.47;24.20;;;6.90;44.00;;;;;;6169269;23;20533;-45
2022/11/26 12:31:45;;;;;;;65.20;24.90;;;6.90;39.70;;;;;;6183414;23;20393;-43
2022/11/26 12:34:29;;;;;;;53.63;23.47;;;6.90;23.00;;;;;;6183539;23;20402;-44
2022/11/26 12:37:01;;;;;;;51.40;20.60;;;6.90;13.90;;;;;;6184040;23;20445;-52
2022/11/26 12:39:44;;;;;;;58.17;22.37;;;6.90;9.50;;;;;;6183783;23;20366;-52
2022/11/26 12:42:44;;;;;;;53.17;22.67;;;6.80;1.00;;;;;;6184079;23;20363;-53
2022/11/26 12:45:50;;;;;;;58.70;23.07;;;6.80;1.00;;;;;;6166779;23;20394;-53
2022/11/26 12:48:28;;;;;;;49.97;22.57;;;6.90;1.00;;;;;;6113231;23;20398;-53
2022/11/26 12:51:15;;;;;;;60.63;22.90;;;6.80;1.00;;;;;;6183540;23;20359;-53
2022/11/26 12:54:01;;;;;;;49.93;22.50;;;6.80;1.00;;;;;;6184934;23;20478;-52
2022/11/26 12:56:59;;;;;;;53.40;22.27;;;6.80;1.00;;;;;;6184851;23;20381;-53
2022/11/26 12:59:39;;;;;;;60.73;22.70;;;6.80;1.00;;;;;;6166540;23;20727;-53
2022/11/26 13:02:38;;;;;;;68.43;23.13;;;6.90;1.00;;;;;;6183385;23;20379;-52
2022/11/26 13:05:04;;;;;;;60.47;22.90;;;6.90;1.00;;;;;;6165812;23;20441;-53
2022/11/26 13:07:42;;;;;;;52.73;21.67;;;6.90;1.00;;;;;;6183304;23;20656;-53
2022/11/26 13:10:16;;;;;;;59.00;23.67;;;7.00;1.00;;;;;;6183508;23;20362;-50
2022/11/26 13:13:04;;;;;;;51.80;22.50;;;7.00;1.00;;;;;;6183196;23;20424;-52
2022/11/26 13:15:38;;;;;;;52.50;22.33;;;7.00;1.00;;;;;;6183812;23;20370;-53
2022/11/26 13:18:27;;;;;;;52.20;21.30;;;6.90;1.00;;;;;;6183107;23;20365;-51
2022/11/26 13:21:08;;;;;;;60.83;22.37;;;7.00;1.00;;;;;;6183763;23;20366;-52
2022/11/26 13:23:53;;;;;;;51.13;22.53;;;6.90;1.00;;;;;;6183123;23;20434;-52
2022/11/26 13:26:33;;;;;;;55.13;21.87;;;7.00;1.00;;;;;;6183008;23;20384;-52
2022/11/26 13:29:27;;;;;;;60.30;22.33;;;6.90;1.00;;;;;;6183544;23;20377;-44
2022/11/26 13:31:58;;;;;;;58.30;22.87;;;6.90;1.00;;;;;;6183728;23;20449;-48
2022/11/26 13:34:40;;;;;;;68.33;24.77;;;6.90;1.00;;;;;;6183331;23;20526;-44
2022/11/26 13:37:12;;;;;;;62.23;22.83;;;6.90;1.00;;;;;;6183873;23;20501;-43
2022/11/26 13:40:11;;;;;;;63.80;22.83;;;6.90;1.00;;;;;;6183874;23;20373;-43
2022/11/26 13:42:55;;;;;;;63.70;23.97;;;7.00;1.00;;;;;;6182888;23;20425;-43
2022/11/26 13:45:42;;;;;;;60.20;22.70;;;7.00;7.60;;;;;;6183805;23;20700;-43
2022/11/26 13:48:43;;;;;;;63.33;24.23;;;7.00;12.40;;;;;;6184013;23;20686;-43
2022/11/26 13:51:21;;;;;;;56.00;23.70;;;7.00;12.50;;;;;;6184336;23;20428;-43
2022/11/26 13:54:16;;;;;;;65.87;23.57;;;7.20;18.00;;;;;;6159387;23;20373;-44
2022/11/26 13:56:43;;;;;;;64.87;23.00;;;7.20;20.70;;;;;;6184482;23;20404;-43
2022/11/26 13:59:21;;;;;;;53.07;22.23;;;7.30;17.20;;;;;;6183983;23;20370;-43
2022/11/26 14:01:47;;;;;;;66.33;23.83;;;7.30;10.40;;;;;;6185867;23;20371;-43
2022/11/26 14:04:22;;;;;;;71.57;26.47;;;7.30;2.10;;;;;;6185066;23;20891;-43
2022/11/26 14:07:03;;;;;;;71.87;24.03;;;7.30;1.00;;;;;;6186119;23;20450;-44
2022/11/26 14:09:50;;;;;;;54.53;23.70;;;7.30;1.00;;;;;;6186081;23;20398;-44
2022/11/26 14:12:18;;;;;;;63.03;23.87;;;7.40;1.00;;;;;;6185694;23;20366;-44
2022/11/26 14:14:46;;;;;;;65.27;23.73;;;7.30;1.00;;;;;;6186292;23;20871;-44
2022/11/26 14:17:20;;;;;;;60.33;23.20;;;7.30;1.00;;;;;;6184303;23;20860;-44
2022/11/26 14:19:50;;;;;;;59.83;25.20;;;7.40;2.00;;;;;;6185688;23;20358;-44
2022/11/26 14:22:19;;;;;;;70.57;25.00;;;7.40;6.90;;;;;;6185201;23;22273;-44
2022/11/26 14:24:50;;;;;;;78.57;27.80;;;7.30;7.60;;;;;;6185349;23;20378;-44
2022/11/26 14:27:26;;;;;;;62.70;24.40;;;7.30;10.70;;;;;;6185131;23;20454;-44
2022/11/26 14:30:15;;;;;;;64.60;24.23;;;7.30;14.80;;;;;;6185396;23;20416;-43
2022/11/26 14:32:52;;;;;;;78.00;25.47;;;7.30;20.40;;;;;;6171483;23;20406;-44
2022/11/26 14:35:39;;;;;;;68.07;24.80;;;7.20;26.90;;;;;;6185078;23;20461;-43
2022/11/26 14:38:21;;;;;;;68.73;25.37;;;7.30;34.80;;;;;;6184510;23;20441;-44
2022/11/26 14:40:55;;;;;;;77.53;26.63;;;7.30;36.00;;;;;;6185511;23;20493;-44
2022/11/26 14:43:21;;;;;;;69.40;25.20;;;7.20;37.10;;;;;;6185475;23;20417;-43
2022/11/26 14:46:12;;;;;;;79.23;26.10;;;7.20;39.80;;;;;;6184825;23;20410;-43
2022/11/26 14:48:46;;;;;;;73.47;26.60;;;7.20;38.00;;;;;;6185224;23;20358;-44
2022/11/26 14:51:21;;;;;;;65.17;25.03;;;7.10;43.70;;;;;;6158604;23;21131;-44
2022/11/26 14:53:48;;;;;;;62.33;25.63;;;7.10;49.40;;;;;;6184164;23;20840;-44
2022/11/26 14:56:17;;;;;;;62.50;22.57;;;7.10;58.80;;;;;;6183685;23;20371;-43
2022/11/26 14:58:47;;;;;;;59.57;23.27;;;7.10;64.70;;;;;;6184692;23;20774;-44
2022/11/26 15:01:16;;;;;;;60.97;22.80;;;7.10;69.80;;;;;;6185109;23;20808;-43
2022/11/26 15:03:56;;;;;;;67.33;23.00;;;7.10;76.30;;;;;;6184842;23;20414;-45
2022/11/26 15:06:25;;;;;;;63.60;23.70;;;7.00;84.10;;;;;;6185016;23;20371;-44
2022/11/26 15:09:23;;;;;;;59.60;23.47;;;7.00;90.30;;;;;;6185275;23;20379;-43
2022/11/26 15:12:04;;;;;;;62.20;23.90;;;7.00;91.90;;;;;;6184262;23;20667;-44
2022/11/26 15:14:39;;;;;;;88.13;27.00;;;7.00;95.40;;;;;;6183548;23;20378;-44
2022/11/26 15:17:06;;;;;;;74.73;25.03;;;7.10;98.00;;;;;;6184508;23;20452;-43
2022/11/26 15:19:35;;;;;;;62.13;25.57;;;7.00;98.90;;;;;;6183170;23;20797;-43
2022/11/26 15:22:07;;;;;;;84.03;26.80;;;7.00;99.90;;;;;;6184665;23;20386;-44
2022/11/26 15:24:34;;;;;;;70.27;27.37;;;7.00;99.90;;;;;;6183568;23;20370;-44
2022/11/26 15:26:59;;;;;;;62.87;26.67;;;7.00;99.90;;;;;;6182184;23;20405;-44
2022/11/26 15:29:39;;;;;;;76.07;26.00;;;7.00;99.90;;;;;;6184082;23;20371;-50
2022/11/26 15:32:22;;;;;;;74.80;27.00;;;7.00;99.90;;;;;;6183753;23;20140;-51
2022/11/26 15:34:48;;;;;;;80.73;26.93;;;7.00;99.90;;;;;;6183478;23;21033;-50
2022/11/26 15:37:13;;;;;;;69.97;26.37;;;7.00;99.90;;;;;;6183166;23;20442;-50
2022/11/26 15:39:39;;;;;;;72.83;28.13;;;7.00;99.90;;;;;;6183311;23;20156;-50
2022/11/26 15:42:22;;;;;;;85.87;29.00;;;7.00;99.90;;;;;;6182983;23;20154;-50
2022/11/26 15:44:48;;;;;;;71.70;27.10;;;7.00;99.90;;;;;;6183122;23;20147;-50
2022/11/26 15:47:23;;;;;;;85.77;27.87;;;7.00;99.90;;;;;;6182686;23;20383;-50
2022/11/26 15:49:53;;;;;;;79.20;26.70;;;7.10;99.90;;;;;;6182867;23;20363;-50
2022/11/26 15:52:23;;;;;;;86.70;29.00;;;7.10;99.90;;;;;;6183480;23;20692;-50
2022/11/26 15:55:18;;;;;;;85.10;27.70;;;7.10;99.90;;;;;;6183358;23;20442;-50
2022/11/26 15:57:49;;;;;;;69.80;27.23;;;7.10;99.90;;;;;;6183106;23;20370;-50
2022/11/26 16:00:37;;;;;;;78.87;28.10;;;7.10;99.90;;;;;;6183374;23;20375;-50
2022/11/26 16:03:23;;;;;;;88.20;28.43;;;7.10;99.90;;;;;;6183302;23;20492;-50
2022/11/26 16:05:54;;;;;;;96.63;30.00;;;7.20;99.90;;;;;;6183084;23;20788;-50
2022/11/26 16:08:23;;;;;;;86.47;30.00;;;7.20;99.90;;;;;;6183231;23;20679;-51
2022/11/26 16:11:20;;;;;;;102.03;29.60;;;7.20;99.90;;;;;;6183695;23;20382;-55
2022/11/26 16:13:46;;;;;;;90.70;28.83;;;7.20;99.90;;;;;;6165155;23;20452;-53
2022/11/26 16:16:20;;;;;;;94.70;30.43;;;7.20;99.90;;;;;;6183396;23;20425;-50
2022/11/26 16:18:58;;;;;;;120.07;33.80;;;7.30;99.90;;;;;;6183489;23;20375;-50
2022/11/26 16:21:27;;;;;;;110.30;33.27;;;7.30;99.90;;;;;;6182561;23;20390;-51
2022/11/26 16:24:05;;;;;;;89.30;29.47;;;7.20;99.90;;;;;;6183010;23;20775;-50
2022/11/26 16:26:51;;;;;;;99.83;32.77;;;7.30;99.90;;;;;;6183028;23;20389;-50
2022/11/26 16:29:17;;;;;;;93.87;30.03;;;7.30;99.90;;;;;;6182006;23;20397;-50
2022/11/26 16:31:43;;;;;;;92.20;31.67;;;7.30;99.90;;;;;;6183207;23;20363;-50
2022/11/26 16:34:08;;;;;;;105.67;33.90;;;7.30;99.90;;;;;;6183277;23;20190;-51
2022/11/26 16:36:34;;;;;;;96.63;32.50;;;7.20;99.90;;;;;;6183429;23;20175;-50
2022/11/26 16:39:00;;;;;;;111.43;33.07;;;7.20;99.90;;;;;;6183442;23;20139;-51
2022/11/26 16:41:25;;;;;;;95.43;31.23;;;7.30;99.90;;;;;;6182999;23;20154;-51
2022/11/26 16:43:51;;;;;;;109.63;31.47;;;7.30;99.90;;;;;;6183372;23;20306;-50
2022/11/26 16:46:26;;;;;;;86.40;31.70;;;7.20;99.90;;;;;;6183284;23;20147;-50
2022/11/26 16:48:52;;;;;;;112.07;32.00;;;7.40;99.90;;;;;;6183317;23;20155;-51
2022/11/26 16:51:18;;;;;;;104.13;30.83;;;7.40;99.90;;;;;;6183004;23;20375;-51
2022/11/26 16:53:44;;;;;;;90.37;30.83;;;7.30;99.90;;;;;;6183010;23;20577;-50
2022/11/26 16:56:37;;;;;;;102.33;33.20;;;7.30;99.90;;;;;;6182998;23;20383;-51
2022/11/26 16:59:18;;;;;;;108.43;32.30;;;7.30;99.90;;;;;;6183014;23;20201;-50
2022/11/26 17:01:43;;;;;;;117.47;32.00;;;7.30;99.90;;;;;;6183126;23;20375;-51
2022/11/26 17:04:11;;;;;;;103.63;31.60;;;7.30;99.90;;;;;;6182846;23;20433;-50
2022/11/26 17:06:38;;;;;;;113.93;32.60;;;7.30;99.90;;;;;;6182815;23;20430;-50
2022/11/26 17:09:03;;;;;;;110.43;31.47;;;7.30;99.90;;;;;;6182863;23;20378;-51
2022/11/26 17:11:29;;;;;;;124.70;32.73;;;7.30;99.90;;;;;;6182982;23;20369;-50
2022/11/26 17:13:55;;;;;;;110.70;32.73;;;7.30;99.90;;;;;;6183199;23;20178;-52
2022/11/26 17:16:22;;;;;;;101.77;30.13;;;7.30;99.90;;;;;;6183001;23;20257;-50
2022/11/26 17:18:48;;;;;;;108.33;30.60;;;7.40;99.90;;;;;;6182759;23;20639;-51
2022/11/26 17:21:13;;;;;;;104.33;30.43;;;7.40;99.90;;;;;;6182900;23;20371;-56
2022/11/26 17:23:39;;;;;;;122.63;32.60;;;7.40;99.90;;;;;;6182743;23;20179;-50
2022/11/26 17:26:19;;;;;;;128.97;31.33;;;7.40;99.90;;;;;;6182856;23;20150;-51
2022/11/26 17:28:45;;;;;;;103.90;32.07;;;7.40;99.90;;;;;;6182909;23;20569;-50
2022/11/26 17:31:11;;;;;;;113.30;31.47;;;7.40;99.90;;;;;;6183042;23;20379;-43
2022/11/26 17:33:37;;;;;;;122.53;31.60;;;7.50;99.90;;;;;;6184736;23;20374;-43
2022/11/26 17:36:08;;;;;;;98.40;29.50;;;7.40;99.90;;;;;;6185353;23;20163;-44
2022/11/26 17:38:34;;;;;;;120.53;33.33;;;7.40;99.90;;;;;;6184986;23;20198;-44
2022/11/26 17:40:59;;;;;;;107.17;31.23;;;7.40;99.90;;;;;;6158670;23;20405;-44
2022/11/26 17:43:25;;;;;;;105.60;29.73;;;7.40;99.90;;;;;;6184747;23;20179;-44
2022/11/26 17:45:50;;;;;;;143.07;32.17;;;7.40;99.90;;;;;;6184730;23;20148;-44
2022/11/26 17:48:16;;;;;;;106.40;30.50;;;7.40;99.90;;;;;;6184844;23;20221;-43
2022/11/26 17:50:41;;;;;;;109.07;33.03;;;7.40;99.90;;;;;;6184038;23;20165;-44
2022/11/26 17:53:07;;;;;;;117.63;30.50;;;7.40;99.90;;;;;;6184024;23;20222;-44
2022/11/26 17:55:33;;;;;;;120.70;29.70;;;7.40;99.90;;;;;;6184491;23;20155;-44
2022/11/26 17:57:59;;;;;;;113.37;30.20;;;7.30;99.90;;;;;;6185002;23;20170;-44
2022/11/26 18:00:29;;;;;;;104.20;30.67;;;7.50;99.90;;;;;;6184762;23;20167;-44
2022/11/26 18:02:55;;;;;;;105.17;29.40;;;7.50;99.90;;;;;;6184829;23;20178;-44
2022/11/26 18:05:21;;;;;;;81.30;27.97;;;7.40;99.90;;;;;;6184492;23;20366;-44
2022/11/26 18:07:48;;;;;;;109.47;30.33;;;7.40;99.90;;;;;;6157663;23;20405;-44
2022/11/26 18:10:16;;;;;;;113.67;30.07;;;7.40;99.90;;;;;;6184213;23;20366;-44
2022/11/26 18:12:43;;;;;;;117.03;30.93;;;7.40;99.90;;;;;;6185226;23;20374;-50
2022/11/26 18:15:19;;;;;;;117.93;30.00;;;7.40;99.90;;;;;;6184933;23;20892;-43
2022/11/26 18:17:50;;;;;;;122.50;34.10;;;7.40;99.90;;;;;;6185222;23;20370;-43
2022/11/26 18:20:21;;;;;;;119.37;30.50;;;7.40;99.90;;;;;;6185180;23;20370;-44
2022/11/26 18:22:52;;;;;;;118.30;30.30;;;7.40;99.90;;;;;;6184311;23;20422;-44
2022/11/26 18:25:17;;;;;;;119.73;30.93;;;7.40;99.90;;;;;;6184616;23;20875;-44
2022/11/26 18:27:43;;;;;;;122.60;32.87;;;7.50;99.90;;;;;;6158631;23;20387;-43
2022/11/26 18:30:09;;;;;;;130.77;30.40;;;7.50;99.90;;;;;;6158203;23;20155;-43
2022/11/26 18:32:36;;;;;;;108.13;30.20;;;7.50;99.90;;;;;;6184683;23;20148;-44
2022/11/26 18:35:02;;;;;;;102.67;29.40;;;7.50;99.90;;;;;;6184222;23;20166;-44
2022/11/26 18:37:28;;;;;;;119.50;29.87;;;7.50;99.90;;;;;;6184093;23;20449;-43
2022/11/26 18:39:53;;;;;;;97.67;30.10;;;7.50;99.90;;;;;;6184938;23;20393;-43
2022/11/26 18:42:19;;;;;;;115.80;29.87;;;7.50;99.90;;;;;;6184717;23;20143;-44
2022/11/26 18:44:44;;;;;;;107.63;30.93;;;7.60;99.90;;;;;;6184600;23;20143;-46
2022/11/26 18:47:11;;;;;;;102.87;31.20;;;7.60;99.90;;;;;;6184662;23;20163;-44
2022/11/26 18:49:37;;;;;;;118.73;32.17;;;7.50;99.90;;;;;;6184482;23;20254;-45
2022/11/26 18:52:02;;;;;;;89.30;30.17;;;7.50;99.90;;;;;;6184740;23;20399;-45
2022/11/26 18:54:28;;;;;;;101.40;28.63;;;7.60;99.90;;;;;;6158394;23;20246;-45
2022/11/26 18:56:54;;;;;;;100.37;28.87;;;7.60;99.90;;;;;;6184615;23;20151;-45
2022/11/26 18:59:19;;;;;;;114.93;30.70;;;7.50;99.90;;;;;;6184354;23;20230;-53
2022/11/26 19:01:45;;;;;;;115.80;31.37;;;7.50;99.90;;;;;;6183972;23;20162;-51
2022/11/26 19:04:11;;;;;;;124.83;32.30;;;7.50;99.90;;;;;;6157749;23;20182;-44
2022/11/26 19:06:38;;;;;;;104.30;31.97;;;7.50;99.90;;;;;;6184134;23;20683;-45
2022/11/26 19:09:13;;;;;;;110.87;30.67;;;7.60;99.90;;;;;;6184943;23;20354;-44
2022/11/26 19:11:39;;;;;;;103.67;31.97;;;7.60;99.90;;;;;;6184297;23;20367;-46
2022/11/26 19:14:06;;;;;;;108.27;32.13;;;7.60;99.90;;;;;;6184661;23;20382;-45
2022/11/26 19:16:31;;;;;;;105.17;31.13;;;7.60;99.90;;;;;;6185128;23;20384;-45
2022/11/26 19:19:00;;;;;;;98.47;30.70;;;7.60;99.90;;;;;;6185018;23;20454;-44
2022/11/26 19:21:28;;;;;;;104.20;30.47;;;7.50;99.90;;;;;;6184003;23;20270;-49
2022/11/26 19:23:55;;;;;;;90.97;31.53;;;7.60;99.90;;;;;;6184583;23;20430;-44
2022/11/26 19:26:22;;;;;;;108.17;31.37;;;7.60;99.90;;;;;;6184629;23;20454;-44
2022/11/26 19:28:48;;;;;;;90.30;30.63;;;7.50;99.90;;;;;;6184246;23;20355;-46
2022/11/26 19:31:17;;;;;;;98.87;30.87;;;7.50;99.90;;;;;;6184017;23;20360;-44
2022/11/26 19:33:45;;;;;;;112.23;31.00;;;7.40;99.90;;;;;;6184030;23;20383;-44
2022/11/26 19:36:13;;;;;;;86.63;29.03;;;7.40;99.90;;;;;;6183894;23;20401;-44
2022/11/26 19:38:38;;;;;;;93.20;29.33;;;7.40;99.90;;;;;;6184099;23;20434;-44
2022/11/26 19:41:05;;;;;;;85.47;29.50;;;7.30;99.90;;;;;;6184155;23;20370;-45
2022/11/26 19:43:36;;;;;;;89.50;28.70;;;7.30;99.90;;;;;;6183730;23;20222;-45
2022/11/26 19:46:08;;;;;;;85.60;29.80;;;7.30;99.90;;;;;;6183835;23;20378;-45
2022/11/26 19:48:36;;;;;;;92.30;29.87;;;7.20;99.90;;;;;;6184080;23;20363;-44
2022/11/26 19:51:03;;;;;;;89.90;31.00;;;7.10;99.90;;;;;;6183761;23;20359;-44
2022/11/26 19:53:28;;;;;;;94.30;30.10;;;7.10;99.90;;;;;;6183727;23;20875;-44
2022/11/26 19:56:06;;;;;;;88.10;30.50;;;7.10;99.90;;;;;;6183596;23;20378;-45
2022/11/26 19:58:33;;;;;;;92.43;29.33;;;7.10;99.90;;;;;;6183693;23;20234;-44
2022/11/26 20:00:59;;;;;;;73.83;28.63;;;7.00;99.90;;;;;;6183564;23;20390;-44
2022/11/26 20:03:27;;;;;;;84.37;28.80;;;7.00;99.90;;;;;;6183753;23;20429;-45
2022/11/26 20:05:53;;;;;;;91.97;29.50;;;7.00;99.90;;;;;;6183702;23;20411;-44
2022/11/26 20:08:18;;;;;;;90.63;30.40;;;7.00;99.90;;;;;;6184058;23;20363;-44
2022/11/26 20:10:45;;;;;;;97.37;32.80;;;6.90;99.90;;;;;;6183499;23;20387;-45
2022/11/26 20:13:11;;;;;;;101.70;32.80;;;6.90;99.90;;;;;;6183407;23;20608;-44
2022/11/26 20:15:46;;;;;;;79.47;30.43;;;6.90;99.90;;;;;;6183667;23;20417;-44
2022/11/26 20:18:13;;;;;;;101.90;31.63;;;6.90;99.90;;;;;;6183454;23;20386;-45
2022/11/26 20:20:39;;;;;;;94.63;32.90;;;6.90;99.90;;;;;;6183268;23;20366;-44
2022/11/26 20:23:04;;;;;;;110.40;34.97;;;6.90;99.90;;;;;;6183243;23;20430;-45
2022/11/26 20:25:34;;;;;;;100.70;32.67;;;7.00;99.90;;;;;;6183169;23;20234;-45
2022/11/26 20:28:01;;;;;;;81.93;31.23;;;7.00;99.90;;;;;;6183418;23;20143;-45
2022/11/26 20:30:27;;;;;;;116.83;34.50;;;7.00;99.90;;;;;;6183338;23;20369;-44
2022/11/26 20:32:53;;;;;;;101.07;34.70;;;7.00;99.90;;;;;;6183385;23;20916;-44
2022/11/26 20:35:19;;;;;;;110.23;35.37;;;7.10;99.90;;;;;;6183146;23;20883;-45
2022/11/26 20:37:45;;;;;;;100.67;32.30;;;7.00;99.90;;;;;;6182855;23;20835;-44
2022/11/26 20:40:11;;;;;;;110.27;34.00;;;7.00;99.90;;;;;;6183390;23;20592;-49
2022/11/26 20:42:37;;;;;;;103.83;34.07;;;7.10;99.90;;;;;;6183363;23;20171;-44
2022/11/26 20:45:04;;;;;;;122.37;34.80;;;7.10;99.90;;;;;;6183532;23;20175;-45
2022/11/26 20:47:30;;;;;;;106.50;35.97;;;7.10;99.90;;;;;;6183373;23;21125;-44
2022/11/26 20:49:55;;;;;;;97.63;36.20;;;7.10;99.90;;;;;;6183193;23;20365;-45
2022/11/26 20:52:22;;;;;;;107.77;35.20;;;7.10;99.90;;;;;;6183156;23;20147;-45
2022/11/26 20:54:49;;;;;;;120.80;36.47;;;7.10;99.90;;;;;;6183075;23;20155;-44
2022/11/26 20:57:17;;;;;;;102.53;33.70;;;7.10;99.90;;;;;;6183270;23;20362;-45
2022/11/26 20:59:43;;;;;;;104.07;34.53;;;7.10;99.90;;;;;;6183381;23;20355;-44
2022/11/26 21:02:10;;;;;;;114.20;34.47;;;7.10;99.90;;;;;;6183075;23;20386;-44
2022/11/26 21:04:36;;;;;;;114.37;35.13;;;7.10;99.90;;;;;;6156507;23;20433;-44
2022/11/26 21:07:03;;;;;;;114.83;36.70;;;7.10;99.90;;;;;;6183401;23;20402;-44
2022/11/26 21:09:28;;;;;;;115.80;34.30;;;7.00;99.90;;;;;;6183034;23;20370;-44
2022/11/26 21:11:54;;;;;;;105.23;34.80;;;7.00;99.90;;;;;;6183198;23;20383;-44
2022/11/26 21:14:20;;;;;;;111.57;33.87;;;7.00;99.90;;;;;;6182801;23;20140;-45
2022/11/26 21:16:45;;;;;;;126.73;35.10;;;7.00;99.90;;;;;;6182787;23;20150;-44
2022/11/26 21:19:11;;;;;;;93.33;32.40;;;7.00;99.90;;;;;;6183040;23;20163;-44
2022/11/26 21:21:37;;;;;;;105.67;32.70;;;7.00;99.90;;;;;;6182781;23;20167;-46
2022/11/26 21:24:04;;;;;;;107.73;34.40;;;7.10;99.90;;;;;;6182829;23;20730;-45
2022/11/26 21:26:30;;;;;;;93.67;32.63;;;7.00;99.90;;;;;;6183082;23;20135;-45
2022/11/26 21:28:58;;;;;;;109.70;34.90;;;7.00;99.90;;;;;;6182860;23;20383;-45
2022/11/26 21:31:25;;;;;;;102.47;31.50;;;7.00;99.90;;;;;;6182518;23;20374;-45
2022/11/26 21:33:56;;;;;;;106.73;33.03;;;7.00;99.90;;;;;;6182888;23;20366;-44
2022/11/26 21:36:23;;;;;;;108.50;32.87;;;7.00;99.90;;;;;;6182701;23;20711;-45
2022/11/26 21:38:49;;;;;;;102.43;33.27;;;6.90;99.90;;;;;;6183018;23;20378;-44
2022/11/26 21:41:15;;;;;;;90.97;32.00;;;6.90;99.90;;;;;;6182930;23;20360;-45
2022/11/26 21:43:42;;;;;;;98.90;32.03;;;6.90;99.90;;;;;;6182620;23;20429;-44
2022/11/26 21:46:20;;;;;;;109.00;32.27;;;6.90;99.90;;;;;;6182408;23;20370;-44
2022/11/26 21:48:46;;;;;;;101.03;31.50;;;6.90;99.90;;;;;;6182444;23;20375;-45
2022/11/26 21:51:15;;;;;;;104.33;31.60;;;6.90;99.90;;;;;;6183088;23;20393;-44
2022/11/26 21:53:40;;;;;;;114.03;34.33;;;6.80;99.90;;;;;;6181537;23;20150;-44
2022/11/26 21:56:32;;;;;;;114.20;34.67;;;6.80;99.90;;;;;;6182470;23;20370;-45
2022/11/26 21:58:59;;;;;;;99.20;31.63;;;6.80;99.90;;;;;;6178603;23;20228;-45
2022/11/26 22:01:31;;;;;;;86.07;31.23;;;6.80;99.90;;;;;;6182514;23;20377;-44
2022/11/26 22:03:59;;;;;;;87.97;30.20;;;6.80;99.90;;;;;;6182756;23;20424;-44
2022/11/26 22:06:25;;;;;;;96.07;32.20;;;6.80;99.90;;;;;;6182437;23;20374;-45
2022/11/26 22:08:51;;;;;;;96.83;33.40;;;6.80;99.90;;;;;;6182718;23;20458;-44
2022/11/26 22:11:20;;;;;;;98.93;32.87;;;6.70;99.90;;;;;;6182634;23;20143;-45
2022/11/26 22:13:46;;;;;;;98.23;30.60;;;6.80;99.90;;;;;;6182632;23;20378;-44
2022/11/26 22:16:14;;;;;;;99.77;30.77;;;6.80;99.90;;;;;;6182524;23;20374;-44
2022/11/26 22:18:42;;;;;;;103.33;32.80;;;6.80;99.90;;;;;;6182805;23;20359;-44
2022/11/26 22:21:17;;;;;;;88.67;30.77;;;6.80;99.90;;;;;;6184105;23;20464;-45
2022/11/26 22:23:43;;;;;;;89.30;29.73;;;6.80;99.90;;;;;;6183946;23;20548;-44
2022/11/26 22:26:09;;;;;;;90.13;30.30;;;6.80;99.90;;;;;;6184846;23;20398;-44
2022/11/26 22:28:37;;;;;;;88.50;30.10;;;6.70;99.90;;;;;;6184918;23;20380;-44
2022/11/26 22:31:11;;;;;;;98.37;31.27;;;6.80;99.90;;;;;;6184628;23;20367;-44
2022/11/26 22:33:37;;;;;;;85.83;29.17;;;6.80;99.90;;;;;;6158359;23;20394;-45
2022/11/26 22:36:03;;;;;;;85.03;29.53;;;6.70;99.90;;;;;;6184570;23;20394;-44
2022/11/26 22:38:29;;;;;;;89.70;30.90;;;6.70;99.90;;;;;;6184292;23;20547;-44
2022/11/26 22:40:59;;;;;;;94.43;30.10;;;6.70;99.90;;;;;;6184651;23;20383;-44
2022/11/26 22:43:25;;;;;;;84.37;30.57;;;6.70;99.90;;;;;;6184387;23;20186;-44
2022/11/26 22:45:50;;;;;;;94.63;29.80;;;6.70;99.90;;;;;;6158157;23;20833;-44
2022/11/26 22:48:16;;;;;;;77.23;28.43;;;6.70;99.90;;;;;;6184198;23;20436;-45
2022/11/26 22:50:52;;;;;;;77.20;28.10;;;6.70;99.90;;;;;;6184585;23;20940;-44
2022/11/26 22:53:18;;;;;;;78.30;26.90;;;6.70;99.90;;;;;;6184472;23;20151;-44
2022/11/26 22:55:51;;;;;;;76.47;25.47;;;6.60;99.90;;;;;;6184267;23;20389;-44
2022/11/26 22:58:18;;;;;;;77.83;22.93;;;6.70;99.90;;;;;;6183948;23;20390;-44
2022/11/26 23:01:01;;;;;;;72.17;23.10;;;6.80;99.90;;;;;;6158019;23;20738;-44
2022/11/26 23:03:28;;;;;;;69.90;23.00;;;6.90;99.90;;;;;;6184321;23;20892;-44
2022/11/26 23:05:54;;;;;;;59.27;21.33;;;7.00;99.90;;;;;;6184056;23;20473;-44
2022/11/26 23:08:20;;;;;;;65.93;20.17;;;7.00;99.90;;;;;;6184255;23;20407;-44
2022/11/26 23:10:47;;;;;;;51.47;19.43;;;7.00;99.90;;;;;;6184128;23;20726;-44
2022/11/26 23:13:13;;;;;;;49.67;18.43;;;7.10;99.90;;;;;;6184128;23;20383;-44
2022/11/26 23:15:42;;;;;;;58.67;19.50;;;7.20;99.90;;;;;;6183876;23;20840;-44
2022/11/26 23:18:09;;;;;;;55.03;19.43;;;7.20;99.90;;;;;;6184155;23;20470;-44
2022/11/26 23:20:35;;;;;;;52.73;17.27;;;7.20;99.90;;;;;;6183821;23;20468;-45
2022/11/26 23:23:02;;;;;;;44.77;18.67;;;7.20;99.90;;;;;;6183903;23;20878;-44
2022/11/26 23:25:27;;;;;;;59.37;19.63;;;7.10;99.90;;;;;;6183921;23;20394;-44
2022/11/26 23:27:53;;;;;;;41.90;18.57;;;7.20;99.90;;;;;;6183739;23;20695;-44
2022/11/26 23:30:19;;;;;;;44.23;18.33;;;7.10;99.90;;;;;;6183933;23;20139;-44
2022/11/26 23:32:45;;;;;;;52.57;17.93;;;7.10;99.90;;;;;;6183597;23;20190;-44
2022/11/26 23:35:10;;;;;;;46.70;16.77;;;7.20;99.90;;;;;;6183762;23;20147;-45
2022/11/26 23:37:37;;;;;;;45.80;17.50;;;7.10;99.90;;;;;;6183930;23;20215;-44
2022/11/26 23:40:04;;;;;;;47.87;18.63;;;7.10;99.90;;;;;;6184363;23;20209;-44
2022/11/26 23:42:29;;;;;;;48.83;16.90;;;7.10;99.90;;;;;;6183778;23;21014;-45
2022/11/26 23:44:55;;;;;;;46.43;17.40;;;7.00;99.90;;;;;;6183840;23;20385;-44
2022/11/26 23:47:20;;;;;;;42.87;17.00;;;7.00;99.90;;;;;;6157506;23;20194;-44
2022/11/26 23:49:46;;;;;;;45.60;18.13;;;6.90;99.90;;;;;;6183611;23;20144;-44
2022/11/26 23:52:11;;;;;;;45.80;16.80;;;6.90;99.90;;;;;;6183548;23;20171;-44
2022/11/26 23:54:37;;;;;;;42.60;16.23;;;6.90;99.90;;;;;;6183703;23;20171;-44
2022/11/26 23:57:03;;;;;;;42.40;16.80;;;6.80;99.90;;;;;;6183650;23;20210;-44
2022/11/26 23:59:28;;;;;;;40.17;16.90;;;6.70;99.90;;;;;;6183895;23;20242;-44
